sensor_id;sensor_type;location;lat;lon;timestamp;temperature;humidity
20728;DHT22;10525;50.154;8.198;2023-03-14T00:02:23;9.20;99.90
20728;DHT22;10525;50.154;8.198;2023-03-14T00:04:50;9.20;99.90
20728;DHT22;10525;50.154;8.198;2023-03-14T00:07:20;9.20;99.90
20728;DHT22;10525;50.154;8.198;2023-03-14T00:09:46;9.20;99.90
20728;DHT22;10525;50.154;8.198;2023-03-14T00:12:13;9.20;99.90
20728;DHT22;10525;50.154;8.198;2023-03-14T00:14:40;9.20;99.90
20728;DHT22;10525;50.154;8.198;2023-03-14T00:17:07;9.20;99.90
20728;DHT22;10525;50.154;8.198;2023-03-14T00:19:35;9.20;99.90
20728;DHT22;10525;50.154;8.198;2023-03-14T00:22:02;9.20;99.90
20728;DHT22;10525;50.154;8.198;2023-03-14T00:24:29;9.20;99.90
20728;DHT22;10525;50.154;8.198;2023-03-14T00:26:55;9.30;99.90
20728;DHT22;10525;50.154;8.198;2023-03-14T00:29:22;9.20;99.90
20728;DHT22;10525;50.154;8.198;2023-03-14T00:31:49;9.30;99.90
20728;DHT22;10525;50.154;8.198;2023-03-14T00:34:15;9.30;99.90
20728;DHT22;10525;50.154;8.198;2023-03-14T00:36:44;9.20;99.90
20728;DHT22;10525;50.154;8.198;2023-03-14T00:39:11;9.20;99.90
20728;DHT22;10525;50.154;8.198;2023-03-14T00:41:38;9.20;99.90
20728;DHT22;10525;50.154;8.198;2023-03-14T00:44:04;9.20;99.90
20728;DHT22;10525;50.154;8.198;2023-03-14T00:46:31;9.20;99.90
20728;DHT22;10525;50.154;8.198;2023-03-14T00:48:58;9.20;99.90
20728;DHT22;10525;50.154;8.198;2023-03-14T00:51:24;9.20;99.90
20728;DHT22;10525;50.154;8.198;2023-03-14T00:53:52;9.20;99.90
20728;DHT22;10525;50.154;8.198;2023-03-14T00:56:19;9.20;99.90
20728;DHT22;10525;50.154;8.198;2023-03-14T00:58:46;9.20;99.90
20728;DHT22;10525;50.154;8.198;2023-03-14T01:01:14;9.20;99.90
20728;DHT22;10525;50.154;8.198;2023-03-14T01:03:41;9.20;99.90
20728;DHT22;10525;50.154;8.198;2023-03-14T01:06:09;9.20;99.90
20728;DHT22;10525;50.154;8.198;2023-03-14T01:08:36;9.20;99.90
20728;DHT22;10525;50.154;8.198;2023-03-14T01:11:08;9.10;99.90
20728;DHT22;10525;50.154;8.198;2023-03-14T01:13:35;9.10;99.90
20728;DHT22;10525;50.154;8.198;2023-03-14T01:16:03;9.10;99.90
20728;DHT22;10525;50.154;8.198;2023-03-14T01:18:32;9.10;99.90
20728;DHT22;10525;50.154;8.198;2023-03-14T01:21:00;9.20;99.90
20728;DHT22;10525;50.154;8.198;2023-03-14T01:23:27;9.20;99.90
20728;DHT22;10525;50.154;8.198;2023-03-14T01:25:54;9.10;99.90
20728;DHT22;10525;50.154;8.198;2023-03-14T01:28:23;9.10;99.90
20728;DHT22;10525;50.154;8.198;2023-03-14T01:30:49;9.10;99.90
20728;DHT22;10525;50.154;8.198;2023-03-14T01:33:16;9.10;99.90
20728;DHT22;10525;50.154;8.198;2023-03-14T01:35:43;9.10;99.90
20728;DHT22;10525;50.154;8.198;2023-03-14T01:38:09;9.10;99.90
20728;DHT22;10525;50.154;8.198;2023-03-14T01:40:42;9.10;99.90
20728;DHT22;10525;50.154;8.198;2023-03-14T01:43:14;9.10;99.90
20728;DHT22;10525;50.154;8.198;2023-03-14T01:48:50;9.10;99.90
20728;DHT22;10525;50.154;8.198;2023-03-14T01:51:20;9.10;99.90
20728;DHT22;10525;50.154;8.198;2023-03-14T01:53:49;9.10;99.90
20728;DHT22;10525;50.154;8.198;2023-03-14T01:56:16;9.10;99.90
20728;DHT22;10525;50.154;8.198;2023-03-14T01:58:47;9.10;99.90
20728;DHT22;10525;50.154;8.198;2023-03-14T02:01:17;9.00;99.90
20728;DHT22;10525;50.154;8.198;2023-03-14T02:03:50;9.00;99.90
20728;DHT22;10525;50.154;8.198;2023-03-14T02:06:22;9.00;99.90
20728;DHT22;10525;50.154;8.198;2023-03-14T02:08:50;9.00;99.90
20728;DHT22;10525;50.154;8.198;2023-03-14T02:11:17;8.90;99.90
20728;DHT22;10525;50.154;8.198;2023-03-14T02:13:45;8.90;99.90
20728;DHT22;10525;50.154;8.198;2023-03-14T02:16:12;8.80;99.90
20728;DHT22;10525;50.154;8.198;2023-03-14T02:18:39;8.80;99.90
20728;DHT22;10525;50.154;8.198;2023-03-14T02:21:13;8.80;99.90
20728;DHT22;10525;50.154;8.198;2023-03-14T02:23:48;8.80;99.90
20728;DHT22;10525;50.154;8.198;2023-03-14T02:26:22;8.80;99.90
20728;DHT22;10525;50.154;8.198;2023-03-14T02:28:51;8.70;99.90
20728;DHT22;10525;50.154;8.198;2023-03-14T02:31:18;8.70;99.90
20728;DHT22;10525;50.154;8.198;2023-03-14T02:33:46;8.70;99.90
20728;DHT22;10525;50.154;8.198;2023-03-14T02:36:14;8.70;99.90
20728;DHT22;10525;50.154;8.198;2023-03-14T02:38:46;8.70;99.90
20728;DHT22;10525;50.154;8.198;2023-03-14T02:41:13;8.70;99.90
20728;DHT22;10525;50.154;8.198;2023-03-14T02:43:40;8.70;99.90
20728;DHT22;10525;50.154;8.198;2023-03-14T02:46:10;8.70;99.90
20728;DHT22;10525;50.154;8.198;2023-03-14T02:48:41;8.70;99.90
20728;DHT22;10525;50.154;8.198;2023-03-14T02:51:09;8.70;99.90
20728;DHT22;10525;50.154;8.198;2023-03-14T02:53:37;8.70;99.90
20728;DHT22;10525;50.154;8.198;2023-03-14T02:56:04;8.70;99.90
20728;DHT22;10525;50.154;8.198;2023-03-14T02:58:31;8.70;99.90
20728;DHT22;10525;50.154;8.198;2023-03-14T03:00:58;8.70;99.90
20728;DHT22;10525;50.154;8.198;2023-03-14T03:03:26;8.80;99.90
20728;DHT22;10525;50.154;8.198;2023-03-14T03:05:54;8.80;99.90
20728;DHT22;10525;50.154;8.198;2023-03-14T03:08:22;8.70;99.90
20728;DHT22;10525;50.154;8.198;2023-03-14T03:10:50;8.80;99.90
20728;DHT22;10525;50.154;8.198;2023-03-14T03:13:17;8.80;99.90
20728;DHT22;10525;50.154;8.198;2023-03-14T03:15:44;8.80;99.90
20728;DHT22;10525;50.154;8.198;2023-03-14T03:18:11;8.80;99.90
20728;DHT22;10525;50.154;8.198;2023-03-14T03:20:39;8.80;99.90
20728;DHT22;10525;50.154;8.198;2023-03-14T03:23:06;8.80;99.90
20728;DHT22;10525;50.154;8.198;2023-03-14T03:25:32;8.80;99.90
20728;DHT22;10525;50.154;8.198;2023-03-14T03:27:59;8.80;99.90
20728;DHT22;10525;50.154;8.198;2023-03-14T03:30:26;8.80;99.90
20728;DHT22;10525;50.154;8.198;2023-03-14T03:32:53;8.80;99.90
20728;DHT22;10525;50.154;8.198;2023-03-14T03:35:19;8.80;99.90
20728;DHT22;10525;50.154;8.198;2023-03-14T03:37:47;8.80;99.90
20728;DHT22;10525;50.154;8.198;2023-03-14T03:40:14;8.80;99.90
20728;DHT22;10525;50.154;8.198;2023-03-14T03:42:40;8.80;99.90
20728;DHT22;10525;50.154;8.198;2023-03-14T03:45:08;8.80;99.90
20728;DHT22;10525;50.154;8.198;2023-03-14T03:47:35;8.90;99.90
20728;DHT22;10525;50.154;8.198;2023-03-14T03:50:02;8.90;99.90
20728;DHT22;10525;50.154;8.198;2023-03-14T03:52:28;8.80;99.90
20728;DHT22;10525;50.154;8.198;2023-03-14T03:54:56;8.90;99.90
20728;DHT22;10525;50.154;8.198;2023-03-14T03:57:23;8.80;99.90
20728;DHT22;10525;50.154;8.198;2023-03-14T03:59:50;8.80;99.90
20728;DHT22;10525;50.154;8.198;2023-03-14T04:02:16;8.80;99.90
20728;DHT22;10525;50.154;8.198;2023-03-14T04:04:43;8.80;99.90
20728;DHT22;10525;50.154;8.198;2023-03-14T04:07:10;8.80;99.90
20728;DHT22;10525;50.154;8.198;2023-03-14T04:09:39;8.70;99.90
20728;DHT22;10525;50.154;8.198;2023-03-14T04:12:07;8.80;99.90
20728;DHT22;10525;50.154;8.198;2023-03-14T04:14:34;8.70;99.90
20728;DHT22;10525;50.154;8.198;2023-03-14T04:17:00;8.70;99.90
20728;DHT22;10525;50.154;8.198;2023-03-14T04:19:27;8.80;99.90
20728;DHT22;10525;50.154;8.198;2023-03-14T04:21:54;8.70;99.90
20728;DHT22;10525;50.154;8.198;2023-03-14T04:24:20;8.80;99.90
20728;DHT22;10525;50.154;8.198;2023-03-14T04:26:47;8.80;99.90
20728;DHT22;10525;50.154;8.198;2023-03-14T04:29:15;8.70;99.90
20728;DHT22;10525;50.154;8.198;2023-03-14T04:31:42;8.70;99.90
20728;DHT22;10525;50.154;8.198;2023-03-14T04:34:09;8.80;99.90
20728;DHT22;10525;50.154;8.198;2023-03-14T04:36:35;8.70;99.90
20728;DHT22;10525;50.154;8.198;2023-03-14T04:39:02;8.70;99.90
20728;DHT22;10525;50.154;8.198;2023-03-14T04:41:29;8.70;99.90
20728;DHT22;10525;50.154;8.198;2023-03-14T04:43:56;8.70;99.90
20728;DHT22;10525;50.154;8.198;2023-03-14T04:46:24;8.70;99.90
20728;DHT22;10525;50.154;8.198;2023-03-14T04:48:51;8.70;99.90
20728;DHT22;10525;50.154;8.198;2023-03-14T04:51:18;8.70;99.90
20728;DHT22;10525;50.154;8.198;2023-03-14T04:53:44;8.70;99.90
20728;DHT22;10525;50.154;8.198;2023-03-14T04:56:11;8.70;99.90
20728;DHT22;10525;50.154;8.198;2023-03-14T04:58:38;8.70;99.90
20728;DHT22;10525;50.154;8.198;2023-03-14T05:01:05;8.60;99.90
20728;DHT22;10525;50.154;8.198;2023-03-14T05:03:33;8.70;99.90
20728;DHT22;10525;50.154;8.198;2023-03-14T05:06:01;8.70;99.90
20728;DHT22;10525;50.154;8.198;2023-03-14T05:08:28;8.70;99.90
20728;DHT22;10525;50.154;8.198;2023-03-14T05:10:56;8.60;99.90
20728;DHT22;10525;50.154;8.198;2023-03-14T05:13:23;8.60;99.90
20728;DHT22;10525;50.154;8.198;2023-03-14T05:15:50;8.70;99.90
20728;DHT22;10525;50.154;8.198;2023-03-14T05:18:16;8.60;99.90
20728;DHT22;10525;50.154;8.198;2023-03-14T05:20:45;8.60;99.90
20728;DHT22;10525;50.154;8.198;2023-03-14T05:23:11;8.60;99.90
20728;DHT22;10525;50.154;8.198;2023-03-14T05:25:38;8.60;99.90
20728;DHT22;10525;50.154;8.198;2023-03-14T05:28:05;8.60;99.90
20728;DHT22;10525;50.154;8.198;2023-03-14T05:30:32;8.50;99.90
20728;DHT22;10525;50.154;8.198;2023-03-14T05:32:59;8.50;99.90
20728;DHT22;10525;50.154;8.198;2023-03-14T05:35:25;8.50;99.90
20728;DHT22;10525;50.154;8.198;2023-03-14T05:37:53;8.40;99.90
20728;DHT22;10525;50.154;8.198;2023-03-14T05:40:20;8.40;99.90
20728;DHT22;10525;50.154;8.198;2023-03-14T05:42:47;8.40;99.90
20728;DHT22;10525;50.154;8.198;2023-03-14T05:45:14;8.40;99.90
20728;DHT22;10525;50.154;8.198;2023-03-14T05:47:40;8.40;99.90
20728;DHT22;10525;50.154;8.198;2023-03-14T05:50:08;8.50;99.90
20728;DHT22;10525;50.154;8.198;2023-03-14T05:52:35;8.50;99.90
20728;DHT22;10525;50.154;8.198;2023-03-14T05:55:04;8.60;99.90
20728;DHT22;10525;50.154;8.198;2023-03-14T05:57:31;8.60;99.90
20728;DHT22;10525;50.154;8.198;2023-03-14T05:59:58;8.50;99.90
20728;DHT22;10525;50.154;8.198;2023-03-14T06:02:24;8.50;99.90
20728;DHT22;10525;50.154;8.198;2023-03-14T06:04:51;8.50;99.90
20728;DHT22;10525;50.154;8.198;2023-03-14T06:07:18;8.50;99.90
20728;DHT22;10525;50.154;8.198;2023-03-14T06:09:45;8.50;99.90
20728;DHT22;10525;50.154;8.198;2023-03-14T06:12:12;8.50;99.90
20728;DHT22;10525;50.154;8.198;2023-03-14T06:14:39;8.50;99.90
20728;DHT22;10525;50.154;8.198;2023-03-14T06:17:06;8.50;99.90
20728;DHT22;10525;50.154;8.198;2023-03-14T06:19:32;8.50;99.90
20728;DHT22;10525;50.154;8.198;2023-03-14T06:21:59;8.60;99.90
20728;DHT22;10525;50.154;8.198;2023-03-14T06:24:26;8.70;99.90
20728;DHT22;10525;50.154;8.198;2023-03-14T06:26:52;8.60;99.90
20728;DHT22;10525;50.154;8.198;2023-03-14T06:29:20;8.60;99.90
20728;DHT22;10525;50.154;8.198;2023-03-14T06:31:47;8.60;99.90
20728;DHT22;10525;50.154;8.198;2023-03-14T06:34:14;8.60;99.90
20728;DHT22;10525;50.154;8.198;2023-03-14T06:36:40;8.60;99.90
20728;DHT22;10525;50.154;8.198;2023-03-14T06:39:07;8.60;99.90
20728;DHT22;10525;50.154;8.198;2023-03-14T06:41:34;8.80;99.90
20728;DHT22;10525;50.154;8.198;2023-03-14T06:44:00;8.80;99.90
20728;DHT22;10525;50.154;8.198;2023-03-14T06:46:28;8.80;99.90
20728;DHT22;10525;50.154;8.198;2023-03-14T06:48:55;8.80;99.90
20728;DHT22;10525;50.154;8.198;2023-03-14T06:51:22;8.80;99.90
20728;DHT22;10525;50.154;8.198;2023-03-14T06:53:48;8.80;99.90
20728;DHT22;10525;50.154;8.198;2023-03-14T06:56:15;8.80;99.90
20728;DHT22;10525;50.154;8.198;2023-03-14T06:58:42;8.90;99.90
20728;DHT22;10525;50.154;8.198;2023-03-14T07:01:20;8.90;99.90
20728;DHT22;10525;50.154;8.198;2023-03-14T07:03:48;8.90;99.90
20728;DHT22;10525;50.154;8.198;2023-03-14T07:06:15;8.90;99.90
20728;DHT22;10525;50.154;8.198;2023-03-14T07:08:41;9.00;99.90
20728;DHT22;10525;50.154;8.198;2023-03-14T07:11:08;9.00;99.90
20728;DHT22;10525;50.154;8.198;2023-03-14T07:13:36;8.90;99.90
20728;DHT22;10525;50.154;8.198;2023-03-14T07:16:03;9.00;99.90
20728;DHT22;10525;50.154;8.198;2023-03-14T07:18:30;9.00;99.90
20728;DHT22;10525;50.154;8.198;2023-03-14T07:20:58;9.10;99.90
20728;DHT22;10525;50.154;8.198;2023-03-14T07:23:25;9.10;99.90
20728;DHT22;10525;50.154;8.198;2023-03-14T07:25:51;9.10;99.90
20728;DHT22;10525;50.154;8.198;2023-03-14T07:30:51;9.00;99.90
20728;DHT22;10525;50.154;8.198;2023-03-14T07:33:18;9.00;99.90
20728;DHT22;10525;50.154;8.198;2023-03-14T07:35:46;9.00;99.90
20728;DHT22;10525;50.154;8.198;2023-03-14T07:38:14;9.10;99.90
20728;DHT22;10525;50.154;8.198;2023-03-14T07:40:41;9.10;99.90
20728;DHT22;10525;50.154;8.198;2023-03-14T07:43:07;9.10;99.90
20728;DHT22;10525;50.154;8.198;2023-03-14T07:45:34;9.00;99.90
20728;DHT22;10525;50.154;8.198;2023-03-14T07:48:01;9.00;99.90
20728;DHT22;10525;50.154;8.198;2023-03-14T07:50:28;9.00;99.90
20728;DHT22;10525;50.154;8.198;2023-03-14T07:52:54;9.10;99.90
20728;DHT22;10525;50.154;8.198;2023-03-14T07:55:22;9.10;99.90
20728;DHT22;10525;50.154;8.198;2023-03-14T07:57:49;9.10;99.90
20728;DHT22;10525;50.154;8.198;2023-03-14T08:00:16;9.20;99.90
20728;DHT22;10525;50.154;8.198;2023-03-14T08:02:43;9.30;99.90
20728;DHT22;10525;50.154;8.198;2023-03-14T08:05:10;9.30;99.90
20728;DHT22;10525;50.154;8.198;2023-03-14T08:07:36;9.30;99.90
20728;DHT22;10525;50.154;8.198;2023-03-14T08:10:04;9.40;99.90
20728;DHT22;10525;50.154;8.198;2023-03-14T08:12:32;9.50;99.90
20728;DHT22;10525;50.154;8.198;2023-03-14T08:14:59;9.80;99.90
20728;DHT22;10525;50.154;8.198;2023-03-14T08:17:26;10.10;99.90
20728;DHT22;10525;50.154;8.198;2023-03-14T08:19:52;10.30;99.90
20728;DHT22;10525;50.154;8.198;2023-03-14T08:22:19;10.40;99.90
20728;DHT22;10525;50.154;8.198;2023-03-14T08:24:46;10.30;99.90
20728;DHT22;10525;50.154;8.198;2023-03-14T08:27:12;10.30;99.90
20728;DHT22;10525;50.154;8.198;2023-03-14T08:29:41;10.30;99.90
20728;DHT22;10525;50.154;8.198;2023-03-14T08:32:09;10.40;99.90
20728;DHT22;10525;50.154;8.198;2023-03-14T08:34:35;10.60;99.90
20728;DHT22;10525;50.154;8.198;2023-03-14T08:37:03;10.70;99.90
20728;DHT22;10525;50.154;8.198;2023-03-14T08:39:29;10.50;99.90
20728;DHT22;10525;50.154;8.198;2023-03-14T08:41:56;10.30;99.90
20728;DHT22;10525;50.154;8.198;2023-03-14T08:44:23;10.20;99.90
20728;DHT22;10525;50.154;8.198;2023-03-14T08:46:51;10.10;99.90
20728;DHT22;10525;50.154;8.198;2023-03-14T08:49:18;9.90;99.90
20728;DHT22;10525;50.154;8.198;2023-03-14T08:51:44;9.90;99.90
20728;DHT22;10525;50.154;8.198;2023-03-14T08:54:11;9.90;99.90
20728;DHT22;10525;50.154;8.198;2023-03-14T08:56:37;9.90;99.90
20728;DHT22;10525;50.154;8.198;2023-03-14T08:59:04;9.80;99.90
20728;DHT22;10525;50.154;8.198;2023-03-14T09:01:31;9.80;99.90
20728;DHT22;10525;50.154;8.198;2023-03-14T09:03:59;9.80;99.90
20728;DHT22;10525;50.154;8.198;2023-03-14T09:06:26;9.80;99.90
20728;DHT22;10525;50.154;8.198;2023-03-14T09:08:52;9.70;99.90
20728;DHT22;10525;50.154;8.198;2023-03-14T09:11:19;9.70;99.90
20728;DHT22;10525;50.154;8.198;2023-03-14T09:13:46;9.80;99.90
20728;DHT22;10525;50.154;8.198;2023-03-14T09:16:14;10.00;99.90
20728;DHT22;10525;50.154;8.198;2023-03-14T09:18:41;10.10;99.90
20728;DHT22;10525;50.154;8.198;2023-03-14T09:21:09;10.20;99.90
20728;DHT22;10525;50.154;8.198;2023-03-14T09:23:35;10.20;99.90
20728;DHT22;10525;50.154;8.198;2023-03-14T09:26:02;10.10;99.90
20728;DHT22;10525;50.154;8.198;2023-03-14T09:28:29;10.10;99.90
20728;DHT22;10525;50.154;8.198;2023-03-14T09:30:56;10.20;99.90
20728;DHT22;10525;50.154;8.198;2023-03-14T09:33:23;10.30;99.90
20728;DHT22;10525;50.154;8.198;2023-03-14T09:35:50;10.30;99.90
20728;DHT22;10525;50.154;8.198;2023-03-14T09:38:18;10.30;99.90
20728;DHT22;10525;50.154;8.198;2023-03-14T09:40:46;10.30;99.90
20728;DHT22;10525;50.154;8.198;2023-03-14T09:43:14;10.10;99.90
20728;DHT22;10525;50.154;8.198;2023-03-14T09:45:43;10.10;99.90
20728;DHT22;10525;50.154;8.198;2023-03-14T09:48:15;10.00;99.90
20728;DHT22;10525;50.154;8.198;2023-03-14T09:50:44;10.00;99.90
20728;DHT22;10525;50.154;8.198;2023-03-14T09:53:15;9.90;99.90
20728;DHT22;10525;50.154;8.198;2023-03-14T09:55:45;9.90;99.90
20728;DHT22;10525;50.154;8.198;2023-03-14T09:58:14;10.00;99.90
20728;DHT22;10525;50.154;8.198;2023-03-14T10:00:42;9.90;99.90
20728;DHT22;10525;50.154;8.198;2023-03-14T10:03:21;9.80;99.90
20728;DHT22;10525;50.154;8.198;2023-03-14T10:05:49;9.80;99.90
20728;DHT22;10525;50.154;8.198;2023-03-14T10:08:15;9.80;99.90
20728;DHT22;10525;50.154;8.198;2023-03-14T10:10:42;9.80;99.90
20728;DHT22;10525;50.154;8.198;2023-03-14T10:13:16;9.70;99.90
20728;DHT22;10525;50.154;8.198;2023-03-14T10:15:48;9.70;99.90
20728;DHT22;10525;50.154;8.198;2023-03-14T10:18:15;9.80;99.90
20728;DHT22;10525;50.154;8.198;2023-03-14T10:20:43;9.90;99.90
20728;DHT22;10525;50.154;8.198;2023-03-14T10:23:24;9.80;99.90
20728;DHT22;10525;50.154;8.198;2023-03-14T10:26:08;9.80;99.90
20728;DHT22;10525;50.154;8.198;2023-03-14T10:28:41;9.80;99.90
20728;DHT22;10525;50.154;8.198;2023-03-14T10:31:09;9.90;99.90
20728;DHT22;10525;50.154;8.198;2023-03-14T10:33:37;9.90;99.90
20728;DHT22;10525;50.154;8.198;2023-03-14T10:36:05;9.90;99.90
20728;DHT22;10525;50.154;8.198;2023-03-14T10:38:35;9.90;99.90
20728;DHT22;10525;50.154;8.198;2023-03-14T10:41:13;10.00;99.90
20728;DHT22;10525;50.154;8.198;2023-03-14T10:43:42;10.00;99.90
20728;DHT22;10525;50.154;8.198;2023-03-14T10:46:13;9.80;99.90
20728;DHT22;10525;50.154;8.198;2023-03-14T10:48:41;9.80;99.90
20728;DHT22;10525;50.154;8.198;2023-03-14T10:51:11;9.80;99.90
20728;DHT22;10525;50.154;8.198;2023-03-14T10:53:41;9.90;99.90
20728;DHT22;10525;50.154;8.198;2023-03-14T10:56:12;9.90;99.90
20728;DHT22;10525;50.154;8.198;2023-03-14T10:58:43;9.90;99.90
20728;DHT22;10525;50.154;8.198;2023-03-14T11:01:25;10.00;99.90
20728;DHT22;10525;50.154;8.198;2023-03-14T11:03:56;10.00;99.90
20728;DHT22;10525;50.154;8.198;2023-03-14T11:06:28;10.10;99.90
20728;DHT22;10525;50.154;8.198;2023-03-14T11:09:04;10.20;99.90
20728;DHT22;10525;50.154;8.198;2023-03-14T11:11:34;10.20;99.90
20728;DHT22;10525;50.154;8.198;2023-03-14T11:14:08;10.30;99.90
20728;DHT22;10525;50.154;8.198;2023-03-14T11:16:47;10.30;99.90
20728;DHT22;10525;50.154;8.198;2023-03-14T11:19:42;10.40;99.90
20728;DHT22;10525;50.154;8.198;2023-03-14T11:22:20;10.50;99.90
20728;DHT22;10525;50.154;8.198;2023-03-14T11:25:06;10.50;99.90
20728;DHT22;10525;50.154;8.198;2023-03-14T11:27:40;10.60;99.90
20728;DHT22;10525;50.154;8.198;2023-03-14T11:30:18;10.70;99.90
20728;DHT22;10525;50.154;8.198;2023-03-14T11:32:46;10.70;99.90
20728;DHT22;10525;50.154;8.198;2023-03-14T11:35:22;10.70;99.90
20728;DHT22;10525;50.154;8.198;2023-03-14T11:37:53;10.50;99.90
20728;DHT22;10525;50.154;8.198;2023-03-14T11:40:23;10.50;99.90
20728;DHT22;10525;50.154;8.198;2023-03-14T11:42:59;10.40;99.90
20728;DHT22;10525;50.154;8.198;2023-03-14T11:45:32;10.10;99.90
20728;DHT22;10525;50.154;8.198;2023-03-14T11:48:27;7.90;99.90
20728;DHT22;10525;50.154;8.198;2023-03-14T11:50:57;7.10;99.90
20728;DHT22;10525;50.154;8.198;2023-03-14T11:53:39;6.90;99.90
20728;DHT22;10525;50.154;8.198;2023-03-14T11:56:13;6.80;99.90
20728;DHT22;10525;50.154;8.198;2023-03-14T11:58:50;6.90;99.90
20728;DHT22;10525;50.154;8.198;2023-03-14T12:01:21;7.10;99.90
20728;DHT22;10525;50.154;8.198;2023-03-14T12:03:53;7.30;99.90
20728;DHT22;10525;50.154;8.198;2023-03-14T12:06:25;7.30;99.90
20728;DHT22;10525;50.154;8.198;2023-03-14T12:08:55;7.30;99.90
20728;DHT22;10525;50.154;8.198;2023-03-14T12:11:35;7.60;99.90
20728;DHT22;10525;50.154;8.198;2023-03-14T12:14:02;7.70;99.90
20728;DHT22;10525;50.154;8.198;2023-03-14T12:16:36;7.70;99.90
20728;DHT22;10525;50.154;8.198;2023-03-14T12:22:28;8.00;99.90
20728;DHT22;10525;50.154;8.198;2023-03-14T12:25:03;7.60;99.90
20728;DHT22;10525;50.154;8.198;2023-03-14T12:27:46;7.40;99.90
20728;DHT22;10525;50.154;8.198;2023-03-14T12:30:31;7.20;99.90
20728;DHT22;10525;50.154;8.198;2023-03-14T12:33:33;7.10;99.90
20728;DHT22;10525;50.154;8.198;2023-03-14T12:36:02;7.10;99.90
20728;DHT22;10525;50.154;8.198;2023-03-14T12:41:29;7.30;99.90
20728;DHT22;10525;50.154;8.198;2023-03-14T12:43:56;7.60;99.90
20728;DHT22;10525;50.154;8.198;2023-03-14T12:46:25;7.80;99.90
20728;DHT22;10525;50.154;8.198;2023-03-14T12:49:03;7.70;99.90
20728;DHT22;10525;50.154;8.198;2023-03-14T12:51:35;7.60;99.90
20728;DHT22;10525;50.154;8.198;2023-03-14T12:54:13;7.70;99.90
20728;DHT22;10525;50.154;8.198;2023-03-14T12:59:31;7.90;99.90
20728;DHT22;10525;50.154;8.198;2023-03-14T13:02:01;8.00;99.90
20728;DHT22;10525;50.154;8.198;2023-03-14T13:04:33;7.90;99.90
20728;DHT22;10525;50.154;8.198;2023-03-14T13:07:01;8.20;99.90
20728;DHT22;10525;50.154;8.198;2023-03-14T13:12:18;8.90;99.90
20728;DHT22;10525;50.154;8.198;2023-03-14T13:14:47;9.00;99.90
20728;DHT22;10525;50.154;8.198;2023-03-14T13:17:18;8.80;99.90
20728;DHT22;10525;50.154;8.198;2023-03-14T13:19:51;8.60;99.90
20728;DHT22;10525;50.154;8.198;2023-03-14T13:22:23;8.40;99.90
20728;DHT22;10525;50.154;8.198;2023-03-14T13:24:56;8.50;99.90
20728;DHT22;10525;50.154;8.198;2023-03-14T13:27:24;8.40;99.90
20728;DHT22;10525;50.154;8.198;2023-03-14T13:29:51;8.20;99.90
20728;DHT22;10525;50.154;8.198;2023-03-14T13:32:20;8.00;99.90
20728;DHT22;10525;50.154;8.198;2023-03-14T13:34:47;7.60;99.90
20728;DHT22;10525;50.154;8.198;2023-03-14T13:37:18;7.00;99.90
20728;DHT22;10525;50.154;8.198;2023-03-14T13:39:49;6.50;99.90
20728;DHT22;10525;50.154;8.198;2023-03-14T13:42:17;6.30;99.90
20728;DHT22;10525;50.154;8.198;2023-03-14T13:44:44;6.10;99.90
20728;DHT22;10525;50.154;8.198;2023-03-14T13:47:14;6.00;99.90
20728;DHT22;10525;50.154;8.198;2023-03-14T13:49:41;5.90;99.90
20728;DHT22;10525;50.154;8.198;2023-03-14T13:52:23;5.90;99.90
20728;DHT22;10525;50.154;8.198;2023-03-14T13:54:53;5.80;99.90
20728;DHT22;10525;50.154;8.198;2023-03-14T13:57:20;5.70;99.90
20728;DHT22;10525;50.154;8.198;2023-03-14T13:59:59;5.80;99.90
20728;DHT22;10525;50.154;8.198;2023-03-14T14:02:27;6.00;99.90
20728;DHT22;10525;50.154;8.198;2023-03-14T14:04:54;6.00;99.90
20728;DHT22;10525;50.154;8.198;2023-03-14T14:07:24;5.80;99.90
20728;DHT22;10525;50.154;8.198;2023-03-14T14:09:53;5.70;99.90
20728;DHT22;10525;50.154;8.198;2023-03-14T14:12:24;5.60;99.90
20728;DHT22;10525;50.154;8.198;2023-03-14T14:14:57;5.60;99.90
20728;DHT22;10525;50.154;8.198;2023-03-14T14:17:28;5.60;99.90
20728;DHT22;10525;50.154;8.198;2023-03-14T14:19:56;5.50;99.90
20728;DHT22;10525;50.154;8.198;2023-03-14T14:22:25;5.40;99.90
20728;DHT22;10525;50.154;8.198;2023-03-14T14:24:52;5.30;99.90
20728;DHT22;10525;50.154;8.198;2023-03-14T14:27:26;5.10;99.90
20728;DHT22;10525;50.154;8.198;2023-03-14T14:29:59;4.90;99.90
20728;DHT22;10525;50.154;8.198;2023-03-14T14:32:27;4.80;99.90
20728;DHT22;10525;50.154;8.198;2023-03-14T14:35:01;4.70;99.90
20728;DHT22;10525;50.154;8.198;2023-03-14T14:37:32;4.60;99.90
20728;DHT22;10525;50.154;8.198;2023-03-14T14:40:00;4.60;99.90
20728;DHT22;10525;50.154;8.198;2023-03-14T14:42:32;4.50;99.90
20728;DHT22;10525;50.154;8.198;2023-03-14T14:44:59;4.40;99.90
20728;DHT22;10525;50.154;8.198;2023-03-14T14:47:29;4.40;99.90
20728;DHT22;10525;50.154;8.198;2023-03-14T14:50:00;4.30;99.90
20728;DHT22;10525;50.154;8.198;2023-03-14T14:52:39;4.10;99.90
20728;DHT22;10525;50.154;8.198;2023-03-14T14:55:16;4.10;99.90
20728;DHT22;10525;50.154;8.198;2023-03-14T14:57:49;4.00;99.90
20728;DHT22;10525;50.154;8.198;2023-03-14T15:00:20;4.00;99.90
20728;DHT22;10525;50.154;8.198;2023-03-14T15:02:49;4.00;99.90
20728;DHT22;10525;50.154;8.198;2023-03-14T15:05:19;4.10;99.90
20728;DHT22;10525;50.154;8.198;2023-03-14T15:07:47;4.20;99.90
20728;DHT22;10525;50.154;8.198;2023-03-14T15:10:17;4.20;99.90
20728;DHT22;10525;50.154;8.198;2023-03-14T15:12:44;4.30;99.90
20728;DHT22;10525;50.154;8.198;2023-03-14T15:15:12;4.30;99.90
20728;DHT22;10525;50.154;8.198;2023-03-14T15:17:39;4.40;99.90
20728;DHT22;10525;50.154;8.198;2023-03-14T15:20:10;4.50;99.90
20728;DHT22;10525;50.154;8.198;2023-03-14T15:22:39;4.60;99.90
20728;DHT22;10525;50.154;8.198;2023-03-14T15:25:08;4.70;99.90
20728;DHT22;10525;50.154;8.198;2023-03-14T15:27:35;4.80;99.90
20728;DHT22;10525;50.154;8.198;2023-03-14T15:30:10;4.90;99.90
20728;DHT22;10525;50.154;8.198;2023-03-14T15:32:36;5.00;99.90
20728;DHT22;10525;50.154;8.198;2023-03-14T15:35:04;5.00;99.90
20728;DHT22;10525;50.154;8.198;2023-03-14T15:37:33;5.00;99.90
20728;DHT22;10525;50.154;8.198;2023-03-14T15:40:00;5.00;99.90
20728;DHT22;10525;50.154;8.198;2023-03-14T15:42:29;5.00;99.90
20728;DHT22;10525;50.154;8.198;2023-03-14T15:44:56;4.90;99.90
20728;DHT22;10525;50.154;8.198;2023-03-14T15:47:23;4.90;99.90
20728;DHT22;10525;50.154;8.198;2023-03-14T15:49:49;4.80;99.90
20728;DHT22;10525;50.154;8.198;2023-03-14T15:52:17;4.90;99.90
20728;DHT22;10525;50.154;8.198;2023-03-14T15:54:43;4.90;99.90
20728;DHT22;10525;50.154;8.198;2023-03-14T15:57:10;5.00;99.90
20728;DHT22;10525;50.154;8.198;2023-03-14T15:59:38;5.10;99.90
20728;DHT22;10525;50.154;8.198;2023-03-14T16:02:05;5.10;99.90
20728;DHT22;10525;50.154;8.198;2023-03-14T16:04:32;5.00;99.90
20728;DHT22;10525;50.154;8.198;2023-03-14T16:06:58;5.00;99.90
20728;DHT22;10525;50.154;8.198;2023-03-14T16:09:25;5.00;99.90
20728;DHT22;10525;50.154;8.198;2023-03-14T16:11:53;5.00;99.90
20728;DHT22;10525;50.154;8.198;2023-03-14T16:14:20;5.00;99.90